sensor_id;sensor_type;location;lat;lon;timestamp;temperature;humidity
14031;DHT22;7090;49.436;8.490;2022-11-20T00:00:11;4.00;99.90
14031;DHT22;7090;49.436;8.490;2022-11-20T00:02:37;4.00;99.90
14031;DHT22;7090;49.436;8.490;2022-11-20T00:05:02;4.00;99.90
14031;DHT22;7090;49.436;8.490;2022-11-20T00:07:28;4.00;99.90
14031;DHT22;7090;49.436;8.490;2022-11-20T00:09:53;3.90;99.90
14031;DHT22;7090;49.436;8.490;2022-11-20T00:12:19;3.90;99.90
14031;DHT22;7090;49.436;8.490;2022-11-20T00:14:44;3.90;99.90
14031;DHT22;7090;49.436;8.490;2022-11-20T00:17:11;3.90;99.90
14031;DHT22;7090;49.436;8.490;2022-11-20T00:19:36;4.00;99.90
14031;DHT22;7090;49.436;8.490;2022-11-20T00:22:02;3.90;99.90
14031;DHT22;7090;49.436;8.490;2022-11-20T00:24:27;4.00;99.90
14031;DHT22;7090;49.436;8.490;2022-11-20T00:26:53;3.90;99.90
14031;DHT22;7090;49.436;8.490;2022-11-20T00:29:18;3.90;99.90
14031;DHT22;7090;49.436;8.490;2022-11-20T00:31:44;3.90;99.90
14031;DHT22;7090;49.436;8.490;2022-11-20T00:34:09;3.80;99.90
14031;DHT22;7090;49.436;8.490;2022-11-20T00:36:35;3.80;99.90
14031;DHT22;7090;49.436;8.490;2022-11-20T00:39:01;3.80;99.90
14031;DHT22;7090;49.436;8.490;2022-11-20T00:41:28;3.70;99.90
14031;DHT22;7090;49.436;8.490;2022-11-20T00:43:55;3.80;99.90
14031;DHT22;7090;49.436;8.490;2022-11-20T00:46:23;3.80;99.90
14031;DHT22;7090;49.436;8.490;2022-11-20T00:48:49;3.90;99.90
14031;DHT22;7090;49.436;8.490;2022-11-20T00:51:17;3.90;99.90
14031;DHT22;7090;49.436;8.490;2022-11-20T00:53:43;3.90;99.90
14031;DHT22;7090;49.436;8.490;2022-11-20T00:56:14;3.90;99.90
14031;DHT22;7090;49.436;8.490;2022-11-20T00:58:41;3.90;99.90
14031;DHT22;7090;49.436;8.490;2022-11-20T01:01:08;3.90;99.90
14031;DHT22;7090;49.436;8.490;2022-11-20T01:03:37;3.90;99.90
14031;DHT22;7090;49.436;8.490;2022-11-20T01:06:07;4.00;99.90
14031;DHT22;7090;49.436;8.490;2022-11-20T01:08:35;3.90;99.90
14031;DHT22;7090;49.436;8.490;2022-11-20T01:11:19;4.00;99.90
14031;DHT22;7090;49.436;8.490;2022-11-20T01:13:46;4.00;99.90
14031;DHT22;7090;49.436;8.490;2022-11-20T01:16:21;4.10;99.90
14031;DHT22;7090;49.436;8.490;2022-11-20T01:18:49;4.10;99.90
14031;DHT22;7090;49.436;8.490;2022-11-20T01:21:34;4.10;99.90
14031;DHT22;7090;49.436;8.490;2022-11-20T01:24:01;4.10;99.90
14031;DHT22;7090;49.436;8.490;2022-11-20T01:26:30;4.00;99.90
14031;DHT22;7090;49.436;8.490;2022-11-20T01:28:57;4.00;99.90
14031;DHT22;7090;49.436;8.490;2022-11-20T01:31:34;4.10;99.90
14031;DHT22;7090;49.436;8.490;2022-11-20T01:34:05;4.20;99.90
14031;DHT22;7090;49.436;8.490;2022-11-20T01:36:32;4.10;99.90
14031;DHT22;7090;49.436;8.490;2022-11-20T01:39:01;4.10;99.90
14031;DHT22;7090;49.436;8.490;2022-11-20T01:41:28;4.10;99.90
14031;DHT22;7090;49.436;8.490;2022-11-20T01:44:16;4.10;99.90
14031;DHT22;7090;49.436;8.490;2022-11-20T01:49:31;4.20;99.90
14031;DHT22;7090;49.436;8.490;2022-11-20T01:52:03;4.30;99.90
14031;DHT22;7090;49.436;8.490;2022-11-20T01:54:35;4.30;99.90
14031;DHT22;7090;49.436;8.490;2022-11-20T01:57:02;4.20;99.90
14031;DHT22;7090;49.436;8.490;2022-11-20T01:59:29;4.20;99.90
14031;DHT22;7090;49.436;8.490;2022-11-20T02:01:55;4.10;99.90
14031;DHT22;7090;49.436;8.490;2022-11-20T02:04:21;4.00;99.90
14031;DHT22;7090;49.436;8.490;2022-11-20T02:06:59;4.10;99.90
14031;DHT22;7090;49.436;8.490;2022-11-20T02:09:25;4.10;99.90
14031;DHT22;7090;49.436;8.490;2022-11-20T02:11:51;4.10;99.90
14031;DHT22;7090;49.436;8.490;2022-11-20T02:14:17;4.10;99.90
14031;DHT22;7090;49.436;8.490;2022-11-20T02:16:47;4.10;99.90
14031;DHT22;7090;49.436;8.490;2022-11-20T02:19:24;4.20;99.90
14031;DHT22;7090;49.436;8.490;2022-11-20T02:24:35;4.10;99.90
14031;DHT22;7090;49.436;8.490;2022-11-20T02:27:12;4.10;99.90
14031;DHT22;7090;49.436;8.490;2022-11-20T02:29:51;4.10;99.90
14031;DHT22;7090;49.436;8.490;2022-11-20T02:32:21;4.10;99.90
14031;DHT22;7090;49.436;8.490;2022-11-20T02:34:47;4.20;99.90
14031;DHT22;7090;49.436;8.490;2022-11-20T02:37:13;4.20;99.90
14031;DHT22;7090;49.436;8.490;2022-11-20T02:39:40;4.20;99.90
14031;DHT22;7090;49.436;8.490;2022-11-20T02:42:06;4.20;99.90
14031;DHT22;7090;49.436;8.490;2022-11-20T02:44:31;4.20;99.90
14031;DHT22;7090;49.436;8.490;2022-11-20T02:46:58;4.10;99.90
14031;DHT22;7090;49.436;8.490;2022-11-20T02:49:25;4.10;99.90
14031;DHT22;7090;49.436;8.490;2022-11-20T02:51:51;4.10;99.90
14031;DHT22;7090;49.436;8.490;2022-11-20T02:54:17;4.10;99.90
14031;DHT22;7090;49.436;8.490;2022-11-20T02:56:42;4.20;99.90
14031;DHT22;7090;49.436;8.490;2022-11-20T02:59:09;4.20;99.90
14031;DHT22;7090;49.436;8.490;2022-11-20T03:01:35;4.20;99.90
14031;DHT22;7090;49.436;8.490;2022-11-20T03:04:01;4.30;99.90
14031;DHT22;7090;49.436;8.490;2022-11-20T03:06:26;4.30;99.90
14031;DHT22;7090;49.436;8.490;2022-11-20T03:08:52;4.40;99.90
14031;DHT22;7090;49.436;8.490;2022-11-20T03:11:17;4.30;99.90
14031;DHT22;7090;49.436;8.490;2022-11-20T03:13:43;4.30;99.90
14031;DHT22;7090;49.436;8.490;2022-11-20T03:16:14;4.30;99.90
14031;DHT22;7090;49.436;8.490;2022-11-20T03:18:41;4.30;99.90
14031;DHT22;7090;49.436;8.490;2022-11-20T03:21:08;4.20;99.90
14031;DHT22;7090;49.436;8.490;2022-11-20T03:23:34;4.20;99.90
14031;DHT22;7090;49.436;8.490;2022-11-20T03:26:17;4.10;99.90
14031;DHT22;7090;49.436;8.490;2022-11-20T03:28:55;4.20;99.90
14031;DHT22;7090;49.436;8.490;2022-11-20T03:31:24;4.20;99.90
14031;DHT22;7090;49.436;8.490;2022-11-20T03:33:50;4.30;99.90
14031;DHT22;7090;49.436;8.490;2022-11-20T03:36:17;4.30;99.90
14031;DHT22;7090;49.436;8.490;2022-11-20T03:38:45;4.20;99.90
14031;DHT22;7090;49.436;8.490;2022-11-20T03:41:16;4.20;99.90
14031;DHT22;7090;49.436;8.490;2022-11-20T03:43:47;4.20;99.90
14031;DHT22;7090;49.436;8.490;2022-11-20T03:46:13;4.20;99.90
14031;DHT22;7090;49.436;8.490;2022-11-20T03:48:38;4.20;99.90
14031;DHT22;7090;49.436;8.490;2022-11-20T03:51:27;4.20;99.90
14031;DHT22;7090;49.436;8.490;2022-11-20T03:53:55;4.20;99.90
14031;DHT22;7090;49.436;8.490;2022-11-20T03:56:24;4.20;99.90
14031;DHT22;7090;49.436;8.490;2022-11-20T03:58:50;4.20;99.90
14031;DHT22;7090;49.436;8.490;2022-11-20T04:01:21;4.30;99.90
14031;DHT22;7090;49.436;8.490;2022-11-20T04:03:47;4.30;99.90
14031;DHT22;7090;49.436;8.490;2022-11-20T04:06:19;4.30;99.90
14031;DHT22;7090;49.436;8.490;2022-11-20T04:08:45;4.30;99.90
14031;DHT22;7090;49.436;8.490;2022-11-20T04:11:19;4.30;99.90
14031;DHT22;7090;49.436;8.490;2022-11-20T04:13:50;4.30;99.90
14031;DHT22;7090;49.436;8.490;2022-11-20T04:16:16;4.40;99.90
14031;DHT22;7090;49.436;8.490;2022-11-20T04:18:42;4.50;99.90
14031;DHT22;7090;49.436;8.490;2022-11-20T04:21:09;4.50;99.90
14031;DHT22;7090;49.436;8.490;2022-11-20T04:23:34;4.50;99.90
14031;DHT22;7090;49.436;8.490;2022-11-20T04:26:12;4.40;99.90
14031;DHT22;7090;49.436;8.490;2022-11-20T04:28:38;4.30;99.90
14031;DHT22;7090;49.436;8.490;2022-11-20T04:31:09;4.30;99.90
14031;DHT22;7090;49.436;8.490;2022-11-20T04:33:36;4.30;99.90
14031;DHT22;7090;49.436;8.490;2022-11-20T04:36:04;4.40;99.90
14031;DHT22;7090;49.436;8.490;2022-11-20T04:38:30;4.50;99.90
14031;DHT22;7090;49.436;8.490;2022-11-20T04:40:57;4.50;99.90
14031;DHT22;7090;49.436;8.490;2022-11-20T04:43:23;4.50;99.90
14031;DHT22;7090;49.436;8.490;2022-11-20T04:45:53;4.60;99.90
14031;DHT22;7090;49.436;8.490;2022-11-20T04:48:19;4.70;99.90
14031;DHT22;7090;49.436;8.490;2022-11-20T04:50:44;4.80;99.90
14031;DHT22;7090;49.436;8.490;2022-11-20T04:53:10;4.80;99.90
14031;DHT22;7090;49.436;8.490;2022-11-20T04:55:36;4.80;99.90
14031;DHT22;7090;49.436;8.490;2022-11-20T04:58:01;4.80;99.90
14031;DHT22;7090;49.436;8.490;2022-11-20T05:00:27;4.80;99.90
14031;DHT22;7090;49.436;8.490;2022-11-20T05:02:52;4.80;99.90
14031;DHT22;7090;49.436;8.490;2022-11-20T05:05:18;4.80;99.90
14031;DHT22;7090;49.436;8.490;2022-11-20T05:07:43;4.80;99.90
14031;DHT22;7090;49.436;8.490;2022-11-20T05:10:09;4.80;99.90
14031;DHT22;7090;49.436;8.490;2022-11-20T05:12:35;4.80;99.90
14031;DHT22;7090;49.436;8.490;2022-11-20T05:15:00;4.60;99.90
14031;DHT22;7090;49.436;8.490;2022-11-20T05:17:26;4.50;99.90
14031;DHT22;7090;49.436;8.490;2022-11-20T05:19:51;4.50;99.90
14031;DHT22;7090;49.436;8.490;2022-11-20T05:22:17;4.50;99.90
14031;DHT22;7090;49.436;8.490;2022-11-20T05:24:42;4.40;99.90
14031;DHT22;7090;49.436;8.490;2022-11-20T05:27:08;4.40;99.90
14031;DHT22;7090;49.436;8.490;2022-11-20T05:29:33;4.50;99.90
14031;DHT22;7090;49.436;8.490;2022-11-20T05:31:59;4.60;99.90
14031;DHT22;7090;49.436;8.490;2022-11-20T05:34:24;4.60;99.90
14031;DHT22;7090;49.436;8.490;2022-11-20T05:36:50;4.60;99.90
14031;DHT22;7090;49.436;8.490;2022-11-20T05:39:16;4.60;99.90
14031;DHT22;7090;49.436;8.490;2022-11-20T05:41:41;4.80;99.90
14031;DHT22;7090;49.436;8.490;2022-11-20T05:44:09;4.90;99.90
14031;DHT22;7090;49.436;8.490;2022-11-20T05:46:35;4.90;99.90
14031;DHT22;7090;49.436;8.490;2022-11-20T05:49:00;4.90;99.90
14031;DHT22;7090;49.436;8.490;2022-11-20T05:51:26;5.00;99.90
14031;DHT22;7090;49.436;8.490;2022-11-20T05:53:52;4.90;99.90
14031;DHT22;7090;49.436;8.490;2022-11-20T05:56:20;5.00;99.90
14031;DHT22;7090;49.436;8.490;2022-11-20T05:58:47;5.00;99.90
14031;DHT22;7090;49.436;8.490;2022-11-20T06:01:19;4.90;99.90
14031;DHT22;7090;49.436;8.490;2022-11-20T06:03:45;4.80;99.90
14031;DHT22;7090;49.436;8.490;2022-11-20T06:06:13;4.80;99.90
14031;DHT22;7090;49.436;8.490;2022-11-20T06:08:39;4.80;99.90
14031;DHT22;7090;49.436;8.490;2022-11-20T06:11:09;4.80;99.90
14031;DHT22;7090;49.436;8.490;2022-11-20T06:13:35;4.70;99.90
14031;DHT22;7090;49.436;8.490;2022-11-20T06:16:02;4.80;99.90
14031;DHT22;7090;49.436;8.490;2022-11-20T06:18:28;4.70;99.90
14031;DHT22;7090;49.436;8.490;2022-11-20T06:21:11;4.70;99.90
14031;DHT22;7090;49.436;8.490;2022-11-20T06:23:37;4.80;99.90
14031;DHT22;7090;49.436;8.490;2022-11-20T06:26:04;4.80;99.90
14031;DHT22;7090;49.436;8.490;2022-11-20T06:28:30;4.90;99.90
14031;DHT22;7090;49.436;8.490;2022-11-20T06:30:56;4.80;99.90
14031;DHT22;7090;49.436;8.490;2022-11-20T06:33:21;4.80;99.90
14031;DHT22;7090;49.436;8.490;2022-11-20T06:35:47;4.90;99.90
14031;DHT22;7090;49.436;8.490;2022-11-20T06:38:12;5.00;99.90
14031;DHT22;7090;49.436;8.490;2022-11-20T06:40:42;5.10;99.90
14031;DHT22;7090;49.436;8.490;2022-11-20T06:43:11;5.20;99.90
14031;DHT22;7090;49.436;8.490;2022-11-20T06:45:37;5.20;99.90
14031;DHT22;7090;49.436;8.490;2022-11-20T06:48:03;5.30;99.90
14031;DHT22;7090;49.436;8.490;2022-11-20T06:50:28;5.30;99.90
14031;DHT22;7090;49.436;8.490;2022-11-20T06:52:54;5.30;99.90
14031;DHT22;7090;49.436;8.490;2022-11-20T06:55:19;5.40;99.90
14031;DHT22;7090;49.436;8.490;2022-11-20T06:57:45;5.40;99.90
14031;DHT22;7090;49.436;8.490;2022-11-20T07:00:11;5.50;99.90
14031;DHT22;7090;49.436;8.490;2022-11-20T07:02:37;5.50;99.90
14031;DHT22;7090;49.436;8.490;2022-11-20T07:05:03;5.40;99.90
14031;DHT22;7090;49.436;8.490;2022-11-20T07:07:29;5.40;99.90
14031;DHT22;7090;49.436;8.490;2022-11-20T07:09:54;5.40;99.90
14031;DHT22;7090;49.436;8.490;2022-11-20T07:12:20;5.40;99.90
14031;DHT22;7090;49.436;8.490;2022-11-20T07:14:45;5.30;99.90
14031;DHT22;7090;49.436;8.490;2022-11-20T07:17:11;5.30;99.90
14031;DHT22;7090;49.436;8.490;2022-11-20T07:19:37;5.30;99.90
14031;DHT22;7090;49.436;8.490;2022-11-20T07:22:03;5.40;99.90
14031;DHT22;7090;49.436;8.490;2022-11-20T07:24:28;5.30;99.90
14031;DHT22;7090;49.436;8.490;2022-11-20T07:26:54;5.40;99.90
14031;DHT22;7090;49.436;8.490;2022-11-20T07:29:19;5.40;99.90
14031;DHT22;7090;49.436;8.490;2022-11-20T07:31:45;5.40;99.90
14031;DHT22;7090;49.436;8.490;2022-11-20T07:34:10;5.60;99.90
14031;DHT22;7090;49.436;8.490;2022-11-20T07:36:36;5.60;99.90
14031;DHT22;7090;49.436;8.490;2022-11-20T07:39:01;5.50;99.90
14031;DHT22;7090;49.436;8.490;2022-11-20T07:41:27;5.60;99.90
14031;DHT22;7090;49.436;8.490;2022-11-20T07:43:53;5.70;99.90
14031;DHT22;7090;49.436;8.490;2022-11-20T07:46:18;5.80;99.90
14031;DHT22;7090;49.436;8.490;2022-11-20T07:48:44;5.80;99.90
14031;DHT22;7090;49.436;8.490;2022-11-20T07:51:09;5.90;99.90
14031;DHT22;7090;49.436;8.490;2022-11-20T07:53:35;5.80;99.90
14031;DHT22;7090;49.436;8.490;2022-11-20T07:56:01;5.80;99.90
14031;DHT22;7090;49.436;8.490;2022-11-20T07:58:29;5.80;99.90
14031;DHT22;7090;49.436;8.490;2022-11-20T08:00:55;5.90;99.90
14031;DHT22;7090;49.436;8.490;2022-11-20T08:03:20;5.90;99.90
14031;DHT22;7090;49.436;8.490;2022-11-20T08:05:46;5.80;99.90
14031;DHT22;7090;49.436;8.490;2022-11-20T08:08:11;5.80;99.90
14031;DHT22;7090;49.436;8.490;2022-11-20T08:10:37;5.80;99.90
14031;DHT22;7090;49.436;8.490;2022-11-20T08:13:03;5.90;99.90
14031;DHT22;7090;49.436;8.490;2022-11-20T08:15:50;5.90;99.90
14031;DHT22;7090;49.436;8.490;2022-11-20T08:18:16;5.80;99.90
14031;DHT22;7090;49.436;8.490;2022-11-20T08:20:43;5.90;99.90
14031;DHT22;7090;49.436;8.490;2022-11-20T08:23:09;6.00;99.90
14031;DHT22;7090;49.436;8.490;2022-11-20T08:25:36;6.00;99.90
14031;DHT22;7090;49.436;8.490;2022-11-20T08:28:07;6.00;99.90
14031;DHT22;7090;49.436;8.490;2022-11-20T08:30:33;6.10;99.90
14031;DHT22;7090;49.436;8.490;2022-11-20T08:33:07;6.20;99.90
14031;DHT22;7090;49.436;8.490;2022-11-20T08:35:34;6.30;99.90
14031;DHT22;7090;49.436;8.490;2022-11-20T08:38:01;6.40;99.90
14031;DHT22;7090;49.436;8.490;2022-11-20T08:40:27;6.60;99.90
14031;DHT22;7090;49.436;8.490;2022-11-20T08:42:52;6.50;99.90
14031;DHT22;7090;49.436;8.490;2022-11-20T08:45:18;6.60;99.90
14031;DHT22;7090;49.436;8.490;2022-11-20T08:47:45;6.60;99.90
14031;DHT22;7090;49.436;8.490;2022-11-20T08:50:13;6.60;99.90
14031;DHT22;7090;49.436;8.490;2022-11-20T08:52:38;6.70;99.90
14031;DHT22;7090;49.436;8.490;2022-11-20T08:55:05;6.80;99.90
14031;DHT22;7090;49.436;8.490;2022-11-20T08:57:32;6.70;99.90
14031;DHT22;7090;49.436;8.490;2022-11-20T08:59:58;6.80;99.90
14031;DHT22;7090;49.436;8.490;2022-11-20T09:02:24;6.90;99.90
14031;DHT22;7090;49.436;8.490;2022-11-20T09:04:50;6.90;99.90
14031;DHT22;7090;49.436;8.490;2022-11-20T09:07:15;6.90;99.90
14031;DHT22;7090;49.436;8.490;2022-11-20T09:09:41;6.90;99.90
14031;DHT22;7090;49.436;8.490;2022-11-20T09:12:06;6.80;99.90
14031;DHT22;7090;49.436;8.490;2022-11-20T09:14:32;6.90;99.90
14031;DHT22;7090;49.436;8.490;2022-11-20T09:16:59;6.90;99.90
14031;DHT22;7090;49.436;8.490;2022-11-20T09:19:24;7.00;99.90
14031;DHT22;7090;49.436;8.490;2022-11-20T09:21:51;7.00;99.90
14031;DHT22;7090;49.436;8.490;2022-11-20T09:24:17;7.10;99.90
14031;DHT22;7090;49.436;8.490;2022-11-20T09:26:43;7.20;99.90
14031;DHT22;7090;49.436;8.490;2022-11-20T09:29:08;7.10;99.90
14031;DHT22;7090;49.436;8.490;2022-11-20T09:31:34;7.30;99.90
14031;DHT22;7090;49.436;8.490;2022-11-20T09:34:00;7.30;99.90
14031;DHT22;7090;49.436;8.490;2022-11-20T09:36:25;7.40;99.90
14031;DHT22;7090;49.436;8.490;2022-11-20T09:38:51;7.30;99.90
14031;DHT22;7090;49.436;8.490;2022-11-20T09:41:41;7.40;99.90
14031;DHT22;7090;49.436;8.490;2022-11-20T09:49:39;7.40;99.90
14031;DHT22;7090;49.436;8.490;2022-11-20T09:52:46;7.40;99.90
14031;DHT22;7090;49.436;8.490;2022-11-20T09:55:14;7.30;99.90
14031;DHT22;7090;49.436;8.490;2022-11-20T09:57:44;7.40;99.90
14031;DHT22;7090;49.436;8.490;2022-11-20T10:00:13;7.50;99.90
14031;DHT22;7090;49.436;8.490;2022-11-20T10:02:48;7.60;99.90
14031;DHT22;7090;49.436;8.490;2022-11-20T10:10:20;7.50;99.90
14031;DHT22;7090;49.436;8.490;2022-11-20T10:13:00;7.60;99.90
14031;DHT22;7090;49.436;8.490;2022-11-20T10:21:04;7.70;99.90
14031;DHT22;7090;49.436;8.490;2022-11-20T10:31:45;7.80;99.90
14031;DHT22;7090;49.436;8.490;2022-11-20T10:36:52;8.10;99.90
14031;DHT22;7090;49.436;8.490;2022-11-20T10:39:36;8.20;99.90
14031;DHT22;7090;49.436;8.490;2022-11-20T10:42:09;8.00;99.90
14031;DHT22;7090;49.436;8.490;2022-11-20T10:44:36;8.00;99.90
14031;DHT22;7090;49.436;8.490;2022-11-20T10:47:25;8.10;99.90
14031;DHT22;7090;49.436;8.490;2022-11-20T10:49:55;8.20;99.90
14031;DHT22;7090;49.436;8.490;2022-11-20T10:52:41;8.00;99.90
14031;DHT22;7090;49.436;8.490;2022-11-20T10:55:44;8.00;99.90
14031;DHT22;7090;49.436;8.490;2022-11-20T11:00:44;8.00;99.90
14031;DHT22;7090;49.436;8.490;2022-11-20T11:03:28;7.90;99.90
14031;DHT22;7090;49.436;8.490;2022-11-20T11:08:43;7.30;99.90
14031;DHT22;7090;49.436;8.490;2022-11-20T11:11:23;7.10;99.90
14031;DHT22;7090;49.436;8.490;2022-11-20T11:13:49;7.10;99.90
14031;DHT22;7090;49.436;8.490;2022-11-20T11:16:26;7.20;99.90
14031;DHT22;7090;49.436;8.490;2022-11-20T11:19:03;7.60;99.90
14031;DHT22;7090;49.436;8.490;2022-11-20T11:21:29;7.90;99.90
14031;DHT22;7090;49.436;8.490;2022-11-20T11:24:03;8.40;99.90
14031;DHT22;7090;49.436;8.490;2022-11-20T11:26:29;8.80;99.90
14031;DHT22;7090;49.436;8.490;2022-11-20T11:28:59;8.80;99.90
14031;DHT22;7090;49.436;8.490;2022-11-20T11:31:35;8.80;99.90
14031;DHT22;7090;49.436;8.490;2022-11-20T11:34:08;8.80;99.90
14031;DHT22;7090;49.436;8.490;2022-11-20T11:36:36;8.70;99.90
14031;DHT22;7090;49.436;8.490;2022-11-20T11:39:03;8.70;99.90
14031;DHT22;7090;49.436;8.490;2022-11-20T11:41:34;8.80;99.90
14031;DHT22;7090;49.436;8.490;2022-11-20T11:44:57;9.10;99.90
14031;DHT22;7090;49.436;8.490;2022-11-20T11:47:17;9.30;99.90
14031;DHT22;7090;49.436;8.490;2022-11-20T11:49:46;9.60;99.90
14031;DHT22;7090;49.436;8.490;2022-11-20T11:52:20;10.00;99.90
14031;DHT22;7090;49.436;8.490;2022-11-20T11:54:56;10.10;99.90
14031;DHT22;7090;49.436;8.490;2022-11-20T11:57:45;10.60;99.90
14031;DHT22;7090;49.436;8.490;2022-11-20T12:00:12;10.70;99.90
14031;DHT22;7090;49.436;8.490;2022-11-20T12:05:34;10.50;99.90
14031;DHT22;7090;49.436;8.490;2022-11-20T12:08:24;10.70;99.90
14031;DHT22;7090;49.436;8.490;2022-11-20T12:11:14;10.80;99.90
14031;DHT22;7090;49.436;8.490;2022-11-20T12:14:20;10.90;99.90
14031;DHT22;7090;49.436;8.490;2022-11-20T12:16:50;10.70;99.90
14031;DHT22;7090;49.436;8.490;2022-11-20T12:19:16;11.10;99.90
14031;DHT22;7090;49.436;8.490;2022-11-20T12:30:07;11.20;99.90
14031;DHT22;7090;49.436;8.490;2022-11-20T12:36:06;10.80;99.90
14031;DHT22;7090;49.436;8.490;2022-11-20T12:39:33;10.80;99.90
14031;DHT22;7090;49.436;8.490;2022-11-20T12:47:56;10.60;99.90
14031;DHT22;7090;49.436;8.490;2022-11-20T12:53:37;10.80;99.90
14031;DHT22;7090;49.436;8.490;2022-11-20T12:59:38;10.60;99.90
14031;DHT22;7090;49.436;8.490;2022-11-20T13:02:25;10.60;99.90
14031;DHT22;7090;49.436;8.490;2022-11-20T13:05:01;10.60;99.90
14031;DHT22;7090;49.436;8.490;2022-11-20T13:07:30;10.70;99.90
14031;DHT22;7090;49.436;8.490;2022-11-20T13:09:59;10.60;99.90
14031;DHT22;7090;49.436;8.490;2022-11-20T13:12:40;10.50;99.90
14031;DHT22;7090;49.436;8.490;2022-11-20T13:18:00;10.50;99.90
14031;DHT22;7090;49.436;8.490;2022-11-20T13:20:27;10.50;99.90
14031;DHT22;7090;49.436;8.490;2022-11-20T13:22:55;10.40;99.90
14031;DHT22;7090;49.436;8.490;2022-11-20T13:25:30;10.40;99.90
14031;DHT22;7090;49.436;8.490;2022-11-20T13:28:03;10.50;99.90
14031;DHT22;7090;49.436;8.490;2022-11-20T13:30:30;10.40;99.90
14031;DHT22;7090;49.436;8.490;2022-11-20T13:33:02;10.50;99.90
14031;DHT22;7090;49.436;8.490;2022-11-20T13:35:42;10.30;99.90
14031;DHT22;7090;49.436;8.490;2022-11-20T13:38:09;10.20;99.90
14031;DHT22;7090;49.436;8.490;2022-11-20T13:40:38;10.20;99.90
14031;DHT22;7090;49.436;8.490;2022-11-20T13:43:15;10.20;99.90
14031;DHT22;7090;49.436;8.490;2022-11-20T13:46:04;10.20;99.90
14031;DHT22;7090;49.436;8.490;2022-11-20T13:48:33;10.20;99.90
14031;DHT22;7090;49.436;8.490;2022-11-20T13:53:38;10.30;99.90
14031;DHT22;7090;49.436;8.490;2022-11-20T13:59:39;10.30;99.90
14031;DHT22;7090;49.436;8.490;2022-11-20T14:02:11;10.30;99.90
14031;DHT22;7090;49.436;8.490;2022-11-20T14:04:43;10.40;99.90
14031;DHT22;7090;49.436;8.490;2022-11-20T14:07:10;10.50;99.90
14031;DHT22;7090;49.436;8.490;2022-11-20T14:09:35;10.60;1.00
14031;DHT22;7090;49.436;8.490;2022-11-20T14:12:02;10.90;48.20
14031;DHT22;7090;49.436;8.490;2022-11-20T14:14:30;10.80;1.00
14031;DHT22;7090;49.436;8.490;2022-11-20T14:17:08;10.70;1.00
14031;DHT22;7090;49.436;8.490;2022-11-20T14:19:34;10.70;1.00
14031;DHT22;7090;49.436;8.490;2022-11-20T14:22:23;10.40;1.00
14031;DHT22;7090;49.436;8.490;2022-11-20T14:27:42;10.10;1.00
14031;DHT22;7090;49.436;8.490;2022-11-20T14:30:15;9.90;1.00
14031;DHT22;7090;49.436;8.490;2022-11-20T14:32:42;9.80;1.00
14031;DHT22;7090;49.436;8.490;2022-11-20T14:35:13;9.70;1.00
14031;DHT22;7090;49.436;8.490;2022-11-20T14:37:40;9.60;1.00
14031;DHT22;7090;49.436;8.490;2022-11-20T14:42:47;9.50;1.00
14031;DHT22;7090;49.436;8.490;2022-11-20T14:45:13;9.40;82.60
14031;DHT22;7090;49.436;8.490;2022-11-20T14:47:40;9.40;99.90
14031;DHT22;7090;49.436;8.490;2022-11-20T14:50:20;9.30;99.90
14031;DHT22;7090;49.436;8.490;2022-11-20T14:52:56;9.30;99.90
14031;DHT22;7090;49.436;8.490;2022-11-20T14:57:56;9.20;99.90
14031;DHT22;7090;49.436;8.490;2022-11-20T15:00:22;9.20;99.90
14031;DHT22;7090;49.436;8.490;2022-11-20T15:02:50;9.20;99.90
14031;DHT22;7090;49.436;8.490;2022-11-20T15:05:17;9.10;99.90
14031;DHT22;7090;49.436;8.490;2022-11-20T15:07:49;9.00;99.90
14031;DHT22;7090;49.436;8.490;2022-11-20T15:10:23;9.00;99.90
14031;DHT22;7090;49.436;8.490;2022-11-20T15:12:51;8.90;99.90
14031;DHT22;7090;49.436;8.490;2022-11-20T15:17:57;8.90;99.90
14031;DHT22;7090;49.436;8.490;2022-11-20T15:20:27;8.80;1.00
14031;DHT22;7090;49.436;8.490;2022-11-20T15:22:53;8.80;99.90
14031;DHT22;7090;49.436;8.490;2022-11-20T15:25:19;8.80;1.00
14031;DHT22;7090;49.436;8.490;2022-11-20T15:27:45;8.80;1.00
14031;DHT22;7090;49.436;8.490;2022-11-20T15:30:19;8.80;1.00
14031;DHT22;7090;49.436;8.490;2022-11-20T15:32:45;8.70;1.00
14031;DHT22;7090;49.436;8.490;2022-11-20T15:35:12;8.70;1.00
14031;DHT22;7090;49.436;8.490;2022-11-20T15:37:37;8.70;1.00
14031;DHT22;7090;49.436;8.490;2022-11-20T15:40:04;8.70;1.00
14031;DHT22;7090;49.436;8.490;2022-11-20T15:42:30;8.80;99.90
14031;DHT22;7090;49.436;8.490;2022-11-20T15:44:56;8.80;1.00
14031;DHT22;7090;49.436;8.490;2022-11-20T15:47:27;8.80;1.00
14031;DHT22;7090;49.436;8.490;2022-11-20T15:49:53;8.70;99.90
14031;DHT22;7090;49.436;8.490;2022-11-20T15:52:18;8.80;1.00
14031;DHT22;7090;49.436;8.490;2022-11-20T15:54:44;8.80;1.00
14031;DHT22;7090;49.436;8.490;2022-11-20T15:57:09;8.70;1.00
14031;DHT22;7090;49.436;8.490;2022-11-20T15:59:35;8.70;1.00
14031;DHT22;7090;49.436;8.490;2022-11-20T16:02:12;8.60;1.00
14031;DHT22;7090;49.436;8.490;2022-11-20T16:04:38;8.60;1.00
14031;DHT22;7090;49.436;8.490;2022-11-20T16:07:04;8.60;1.00
14031;DHT22;7090;49.436;8.490;2022-11-20T16:09:30;8.60;1.00
14031;DHT22;7090;49.436;8.490;2022-11-20T16:11:55;8.60;1.00
14031;DHT22;7090;49.436;8.490;2022-11-20T16:14:21;8.60;1.00
14031;DHT22;7090;49.436;8.490;2022-11-20T16:17:05;8.70;1.00
14031;DHT22;7090;49.436;8.490;2022-11-20T16:19:31;8.60;1.00
14031;DHT22;7090;49.436;8.490;2022-11-20T16:21:59;8.60;1.00
14031;DHT22;7090;49.436;8.490;2022-11-20T16:24:26;8.60;1.00
14031;DHT22;7090;49.436;8.490;2022-11-20T16:26:53;8.60;1.00
14031;DHT22;7090;49.436;8.490;2022-11-20T16:29:19;8.70;1.00
14031;DHT22;7090;49.436;8.490;2022-11-20T16:31:44;8.60;1.00
14031;DHT22;7090;49.436;8.490;2022-11-20T16:34:10;8.60;1.00
14031;DHT22;7090;49.436;8.490;2022-11-20T16:36:36;8.60;1.00
14031;DHT22;7090;49.436;8.490;2022-11-20T16:39:04;8.50;1.00
14031;DHT22;7090;49.436;8.490;2022-11-20T16:41:32;8.60;1.00
14031;DHT22;7090;49.436;8.490;2022-11-20T16:44:00;8.50;1.00
14031;DHT22;7090;49.436;8.490;2022-11-20T16:46:30;8.50;1.00
14031;DHT22;7090;49.436;8.490;2022-11-20T16:48:58;8.60;1.00
14031;DHT22;7090;49.436;8.490;2022-11-20T16:51:25;8.60;1.00
14031;DHT22;7090;49.436;8.490;2022-11-20T16:53:51;8.60;1.00
14031;DHT22;7090;49.436;8.490;2022-11-20T16:56:20;8.50;1.00
14031;DHT22;7090;49.436;8.490;2022-11-20T16:58:47;8.50;1.00
14031;DHT22;7090;49.436;8.490;2022-11-20T17:01:15;8.60;1.00
14031;DHT22;7090;49.436;8.490;2022-11-20T17:03:42;8.60;1.00
14031;DHT22;7090;49.436;8.490;2022-11-20T17:06:16;8.60;1.00
14031;DHT22;7090;49.436;8.490;2022-11-20T17:08:42;8.60;1.00
14031;DHT22;7090;49.436;8.490;2022-11-20T17:11:10;8.60;1.00
14031;DHT22;7090;49.436;8.490;2022-11-20T17:13:36;8.60;1.00
14031;DHT22;7090;49.436;8.490;2022-11-20T17:16:07;8.60;1.00
14031;DHT22;7090;49.436;8.490;2022-11-20T17:18:33;8.50;1.00
14031;DHT22;7090;49.436;8.490;2022-11-20T17:20:59;8.50;1.00
14031;DHT22;7090;49.436;8.490;2022-11-20T17:23:30;8.50;1.00
14031;DHT22;7090;49.436;8.490;2022-11-20T17:28:55;8.60;1.00
14031;DHT22;7090;49.436;8.490;2022-11-20T17:31:22;8.50;1.00
14031;DHT22;7090;49.436;8.490;2022-11-20T17:33:48;8.50;1.00
14031;DHT22;7090;49.436;8.490;2022-11-20T17:36:15;8.50;1.00
14031;DHT22;7090;49.436;8.490;2022-11-20T17:38:42;8.50;1.00
14031;DHT22;7090;49.436;8.490;2022-11-20T17:41:10;8.40;1.00